DAL7752 RJGG-OTBD
Flight info
| Callsign | DAL7752 |
|---|---|
| Flight time | N/A |
| Altitude | 38000 |
| Route | YME Y18 MIHOU Y38 SAPRA G585 SEL G597 AGAVO/K0915S1160 A591 IKEKA W4 HCH W200 DOVIV W55 PAMRU/K0911S1220 W34 VYK B215 NIRUV W199 ALGOT V67 JSG W619 BILDA W112 PURPA/N0490F400 G325 ZB J133 PARLO G325 PG T385 TAPDO/N0484F430 A454 PASOV M564 VAXAS DCT GERUL DCT TOSNA |
| Aircraft | A359/H-SDE2E3GHIJ3J4J5LM1ORWXY/LB1D1 |
Departure
| Time | 2026-05-07 13:00 |
|---|---|
| Airport | Chubu Centrair International Airport (RJGG) |
Arrival
| Time | N/A |
|---|---|
| Airport | Doha International Airport (OTBD) |
| Time | Latitude | Longitude | Altitude | Speed | Heading |
|---|---|---|---|---|---|
| 2026-05-07 12:26 | 34.87006 | 136.80816 | 25 ft | 0 kts | 79° |
| 2026-05-07 12:45 | 34.87004 | 136.80800 | 30 ft | 4 kts | 78° |
| 2026-05-07 12:46 | 34.86998 | 136.80768 | 31 ft | 4 kts | 76° |
| 2026-05-07 12:46 | 34.86992 | 136.80739 | 29 ft | 3 kts | 79° |
| 2026-05-07 12:46 | 34.86993 | 136.80711 | 31 ft | 4 kts | 131° |
| 2026-05-07 12:46 | 34.87014 | 136.80698 | 31 ft | 4 kts | 175° |
| 2026-05-07 12:47 | 34.87041 | 136.80697 | 31 ft | 4 kts | 181° |
| 2026-05-07 12:47 | 34.87065 | 136.80696 | 31 ft | 1 kts | 169° |
| 2026-05-07 12:51 | 34.87064 | 136.80697 | 31 ft | 1 kts | 169° |
| 2026-05-07 12:51 | 34.87023 | 136.80707 | 31 ft | 11 kts | 169° |
| 2026-05-07 12:52 | 34.86929 | 136.80729 | 28 ft | 16 kts | 169° |
| 2026-05-07 12:52 | 34.86802 | 136.80760 | 27 ft | 21 kts | 169° |
| 2026-05-07 12:52 | 34.86649 | 136.80797 | 29 ft | 23 kts | 168° |
| 2026-05-07 12:52 | 34.86529 | 136.80824 | 28 ft | 12 kts | 178° |
| 2026-05-07 12:53 | 34.86465 | 136.80768 | 30 ft | 12 kts | 230° |
| 2026-05-07 12:53 | 34.86391 | 136.80761 | 28 ft | 12 kts | 169° |
| 2026-05-07 12:53 | 34.86307 | 136.80781 | 30 ft | 13 kts | 169° |
| 2026-05-07 12:53 | 34.86215 | 136.80803 | 28 ft | 14 kts | 169° |
| 2026-05-07 12:54 | 34.86114 | 136.80826 | 28 ft | 15 kts | 169° |
| 2026-05-07 12:54 | 34.86008 | 136.80853 | 28 ft | 16 kts | 168° |
| 2026-05-07 12:54 | 34.85893 | 136.80880 | 27 ft | 17 kts | 169° |
| 2026-05-07 12:54 | 34.85771 | 136.80910 | 29 ft | 18 kts | 169° |
| 2026-05-07 12:55 | 34.85646 | 136.80939 | 26 ft | 19 kts | 169° |
| 2026-05-07 12:55 | 34.85512 | 136.80973 | 29 ft | 20 kts | 168° |
| 2026-05-07 12:55 | 34.85377 | 136.81005 | 27 ft | 20 kts | 169° |
| 2026-05-07 12:55 | 34.85236 | 136.81039 | 29 ft | 21 kts | 169° |
| 2026-05-07 12:56 | 34.85091 | 136.81075 | 29 ft | 21 kts | 167° |
| 2026-05-07 12:56 | 34.84944 | 136.81112 | 28 ft | 22 kts | 169° |
| 2026-05-07 12:56 | 34.84793 | 136.81147 | 28 ft | 22 kts | 169° |
| 2026-05-07 12:56 | 34.84639 | 136.81183 | 28 ft | 23 kts | 168° |
| 2026-05-07 12:57 | 34.84498 | 136.81218 | 26 ft | 10 kts | 168° |
| 2026-05-07 12:57 | 34.84430 | 136.81234 | 29 ft | 11 kts | 169° |
| 2026-05-07 12:57 | 34.84357 | 136.81224 | 28 ft | 11 kts | 205° |
| 2026-05-07 12:57 | 34.84340 | 136.81180 | 28 ft | 6 kts | 258° |
| 2026-05-07 12:58 | 34.84331 | 136.81086 | 25 ft | 16 kts | 262° |
| 2026-05-07 12:58 | 34.84312 | 136.80945 | 28 ft | 12 kts | 261° |
| 2026-05-07 12:58 | 34.84311 | 136.80933 | 28 ft | 0 kts | 261° |
| 2026-05-07 12:58 | 34.84324 | 136.80903 | 26 ft | 8 kts | 324° |
| 2026-05-07 12:59 | 34.84447 | 136.80869 | 27 ft | 41 kts | 349° |
| 2026-05-07 12:59 | 34.84948 | 136.80748 | 27 ft | 104 kts | 349° |
| 2026-05-07 12:59 | 34.85843 | 136.80535 | 28 ft | 156 kts | 349° |
| 2026-05-07 12:59 | 34.87013 | 136.80247 | 358 ft | 172 kts | 351° |
| 2026-05-07 13:00 | 34.88162 | 136.80320 | 991 ft | 164 kts | 14° |
| 2026-05-07 13:00 | 34.89326 | 136.80134 | 1245 ft | 180 kts | 330° |
| 2026-05-07 13:00 | 34.90499 | 136.79382 | 1451 ft | 204 kts | 337° |
| 2026-05-07 13:00 | 34.91994 | 136.79282 | 1612 ft | 233 kts | 14° |
| 2026-05-07 13:01 | 34.93550 | 136.80098 | 1900 ft | 255 kts | 27° |
| 2026-05-07 13:01 | 34.95263 | 136.80710 | 2518 ft | 256 kts | 0° |
| 2026-05-07 13:01 | 34.96956 | 136.80309 | 3470 ft | 244 kts | 337° |
| 2026-05-07 13:01 | 34.98483 | 136.79434 | 4203 ft | 242 kts | 325° |
| 2026-05-07 13:02 | 34.99698 | 136.78036 | 4873 ft | 241 kts | 308° |
| 2026-05-07 13:02 | 35.00618 | 136.76340 | 5564 ft | 240 kts | 294° |
| 2026-05-07 13:02 | 35.01196 | 136.74438 | 6252 ft | 240 kts | 281° |
| 2026-05-07 13:02 | 35.01237 | 136.72411 | 6885 ft | 241 kts | 257° |
| 2026-05-07 13:03 | 35.00516 | 136.70591 | 7593 ft | 242 kts | 229° |
| 2026-05-07 13:03 | 34.99093 | 136.69507 | 8326 ft | 244 kts | 203° |
| 2026-05-07 13:03 | 34.97585 | 136.68563 | 9050 ft | 244 kts | 213° |
| 2026-05-07 13:03 | 34.96186 | 136.67404 | 9761 ft | 243 kts | 226° |
| 2026-05-07 13:04 | 34.95093 | 136.65840 | 10445 ft | 243 kts | 236° |
| 2026-05-07 13:04 | 34.94312 | 136.64005 | 11051 ft | 246 kts | 252° |
| 2026-05-07 13:04 | 34.94120 | 136.61928 | 11673 ft | 251 kts | 274° |
| 2026-05-07 13:04 | 34.94482 | 136.59854 | 12332 ft | 256 kts | 284° |
| 2026-05-07 13:05 | 34.95116 | 136.57804 | 12975 ft | 261 kts | 290° |
| 2026-05-07 13:05 | 34.95893 | 136.55785 | 13622 ft | 265 kts | 292° |
| 2026-05-07 13:05 | 34.96723 | 136.53769 | 14219 ft | 268 kts | 292° |
| 2026-05-07 13:05 | 34.97562 | 136.51731 | 14796 ft | 271 kts | 292° |
| 2026-05-07 13:06 | 34.98393 | 136.49660 | 15383 ft | 273 kts | 291° |
| 2026-05-07 13:06 | 34.99209 | 136.47565 | 15954 ft | 274 kts | 290° |
| 2026-05-07 13:06 | 35.00021 | 136.45426 | 16366 ft | 283 kts | 289° |
| 2026-05-07 13:06 | 35.00856 | 136.43180 | 16589 ft | 298 kts | 290° |
| 2026-05-07 13:07 | 35.01726 | 136.40818 | 16833 ft | 313 kts | 290° |
| 2026-05-07 13:07 | 35.02640 | 136.38345 | 17033 ft | 327 kts | 290° |
| 2026-05-07 13:07 | 35.03598 | 136.35759 | 17293 ft | 341 kts | 290° |
| 2026-05-07 13:07 | 35.04593 | 136.33067 | 17521 ft | 355 kts | 290° |
| 2026-05-07 13:08 | 35.05627 | 136.30277 | 17759 ft | 367 kts | 290° |
| 2026-05-07 13:08 | 35.06696 | 136.27390 | 17958 ft | 379 kts | 290° |
| 2026-05-07 13:08 | 35.07796 | 136.24419 | 18182 ft | 389 kts | 290° |
| 2026-05-07 13:08 | 35.08924 | 136.21374 | 18420 ft | 397 kts | 290° |
| 2026-05-07 13:09 | 35.10067 | 136.18292 | 18825 ft | 400 kts | 290° |
| 2026-05-07 13:09 | 35.11214 | 136.15196 | 19251 ft | 401 kts | 290° |
| 2026-05-07 13:09 | 35.12368 | 136.12079 | 19683 ft | 403 kts | 290° |
| 2026-05-07 13:09 | 35.13523 | 136.08950 | 20143 ft | 405 kts | 290° |
| 2026-05-07 13:10 | 35.14681 | 136.05806 | 20606 ft | 407 kts | 290° |
| 2026-05-07 13:10 | 35.15845 | 136.02642 | 21046 ft | 409 kts | 290° |
| 2026-05-07 13:10 | 35.17013 | 135.99460 | 21504 ft | 411 kts | 290° |
| 2026-05-07 13:10 | 35.18186 | 135.96266 | 21981 ft | 413 kts | 289° |
| 2026-05-07 13:11 | 35.19362 | 135.93057 | 22444 ft | 414 kts | 289° |
| 2026-05-07 13:11 | 35.20542 | 135.89835 | 22874 ft | 417 kts | 289° |
| 2026-05-07 13:11 | 35.21728 | 135.86587 | 23316 ft | 420 kts | 289° |
| 2026-05-07 13:11 | 35.22923 | 135.83313 | 23655 ft | 424 kts | 289° |
| 2026-05-07 13:12 | 35.24126 | 135.80017 | 24066 ft | 425 kts | 289° |
| 2026-05-07 13:12 | 35.25331 | 135.76713 | 24476 ft | 427 kts | 289° |
| 2026-05-07 13:12 | 35.26548 | 135.73378 | 24842 ft | 431 kts | 289° |
| 2026-05-07 13:12 | 35.27770 | 135.70020 | 25243 ft | 433 kts | 289° |
| 2026-05-07 13:13 | 35.28997 | 135.66642 | 25635 ft | 436 kts | 289° |
| 2026-05-07 13:13 | 35.30231 | 135.63243 | 26048 ft | 438 kts | 290° |
| 2026-05-07 13:13 | 35.31470 | 135.59832 | 26456 ft | 440 kts | 290° |
| 2026-05-07 13:13 | 35.32716 | 135.56395 | 26850 ft | 443 kts | 290° |
| 2026-05-07 13:14 | 35.33971 | 135.52933 | 27277 ft | 446 kts | 290° |
| 2026-05-07 13:14 | 35.34807 | 135.50627 | 27530 ft | 448 kts | 290° |
| 2026-05-07 13:14 | 35.36497 | 135.45945 | 28060 ft | 451 kts | 290° |
| 2026-05-07 13:14 | 35.37339 | 135.43611 | 28323 ft | 453 kts | 290° |
| 2026-05-07 13:15 | 35.38613 | 135.40074 | 28663 ft | 456 kts | 290° |
| 2026-05-07 13:15 | 35.39896 | 135.36509 | 29015 ft | 458 kts | 290° |
| 2026-05-07 13:15 | 35.41182 | 135.32936 | 29419 ft | 459 kts | 290° |
| 2026-05-07 13:15 | 35.42474 | 135.29346 | 29778 ft | 461 kts | 290° |
| 2026-05-07 13:16 | 35.44190 | 135.24565 | 30181 ft | 464 kts | 290° |
| 2026-05-07 13:16 | 35.45067 | 135.22119 | 30351 ft | 465 kts | 290° |
| 2026-05-07 13:16 | 35.46357 | 135.18474 | 30600 ft | 467 kts | 289° |
| 2026-05-07 13:16 | 35.47397 | 135.14709 | 30854 ft | 466 kts | 282° |
| 2026-05-07 13:17 | 35.48020 | 135.10830 | 31223 ft | 462 kts | 275° |
| 2026-05-07 13:17 | 35.48352 | 135.06920 | 31621 ft | 459 kts | 272° |
| 2026-05-07 13:17 | 35.48539 | 135.03020 | 32005 ft | 458 kts | 270° |
| 2026-05-07 13:17 | 35.48652 | 134.99127 | 32373 ft | 456 kts | 270° |
| 2026-05-07 13:18 | 35.48736 | 134.95241 | 32769 ft | 454 kts | 269° |
| 2026-05-07 13:18 | 35.48818 | 134.91368 | 33118 ft | 454 kts | 269° |
| 2026-05-07 13:18 | 35.48908 | 134.87508 | 33460 ft | 453 kts | 270° |
| 2026-05-07 13:18 | 35.49006 | 134.83650 | 33785 ft | 452 kts | 270° |
| 2026-05-07 13:19 | 35.49112 | 134.79795 | 34090 ft | 451 kts | 270° |
| 2026-05-07 13:19 | 35.49222 | 134.75947 | 34380 ft | 450 kts | 270° |
| 2026-05-07 13:19 | 35.49332 | 134.72165 | 34658 ft | 449 kts | 270° |
| 2026-05-07 13:19 | 35.49443 | 134.68353 | 35059 ft | 445 kts | 270° |
| 2026-05-07 13:20 | 35.49552 | 134.64567 | 35409 ft | 443 kts | 269° |
| 2026-05-07 13:20 | 35.49658 | 134.60795 | 35651 ft | 442 kts | 269° |
| 2026-05-07 13:20 | 35.49762 | 134.57030 | 35888 ft | 442 kts | 269° |
| 2026-05-07 13:20 | 35.49865 | 134.53265 | 36141 ft | 441 kts | 269° |
| 2026-05-07 13:21 | 35.49965 | 134.49512 | 36365 ft | 440 kts | 269° |
| 2026-05-07 13:21 | 35.50065 | 134.45760 | 36580 ft | 439 kts | 269° |
| 2026-05-07 13:21 | 35.50164 | 134.42012 | 36800 ft | 439 kts | 269° |
| 2026-05-07 13:21 | 35.50261 | 134.38275 | 37004 ft | 439 kts | 269° |
| 2026-05-07 13:22 | 35.50357 | 134.34532 | 37205 ft | 438 kts | 269° |
| 2026-05-07 13:22 | 35.50451 | 134.30801 | 37415 ft | 437 kts | 269° |
| 2026-05-07 13:22 | 35.50544 | 134.27079 | 37613 ft | 436 kts | 269° |
| 2026-05-07 13:22 | 35.50637 | 134.23357 | 37801 ft | 436 kts | 269° |
| 2026-05-07 13:23 | 35.50728 | 134.19634 | 37913 ft | 438 kts | 269° |
| 2026-05-07 13:23 | 35.50818 | 134.15892 | 37912 ft | 440 kts | 269° |
| 2026-05-07 13:23 | 35.51001 | 134.08386 | 37909 ft | 439 kts | 269° |
| 2026-05-07 13:24 | 35.51172 | 134.00896 | 37916 ft | 440 kts | 269° |
| 2026-05-07 13:24 | 35.51338 | 133.93395 | 37913 ft | 440 kts | 269° |
| 2026-05-07 13:25 | 35.51501 | 133.85888 | 37909 ft | 440 kts | 269° |
| 2026-05-07 13:25 | 35.51660 | 133.78392 | 37915 ft | 439 kts | 269° |
| 2026-05-07 13:26 | 35.51814 | 133.70900 | 37906 ft | 439 kts | 269° |
| 2026-05-07 13:26 | 35.51964 | 133.63406 | 37903 ft | 439 kts | 269° |
| 2026-05-07 13:27 | 35.52134 | 133.55917 | 37915 ft | 438 kts | 270° |
| 2026-05-07 13:27 | 35.52309 | 133.48445 | 37923 ft | 438 kts | 270° |
| 2026-05-07 13:28 | 35.52478 | 133.40969 | 37934 ft | 438 kts | 269° |
| 2026-05-07 13:28 | 35.52642 | 133.33529 | 37942 ft | 435 kts | 269° |
| 2026-05-07 13:29 | 35.52796 | 133.26109 | 37934 ft | 435 kts | 269° |
| 2026-05-07 13:29 | 35.52940 | 133.18684 | 37933 ft | 435 kts | 269° |
| 2026-05-07 13:30 | 35.53093 | 133.11280 | 37911 ft | 434 kts | 271° |
| 2026-05-07 13:30 | 35.53804 | 133.03899 | 37908 ft | 435 kts | 275° |
| 2026-05-07 13:31 | 35.54708 | 132.96552 | 37907 ft | 434 kts | 276° |
| 2026-05-07 13:31 | 35.55635 | 132.89238 | 37908 ft | 433 kts | 276° |
| 2026-05-07 13:32 | 35.56546 | 132.81977 | 37906 ft | 433 kts | 275° |
| 2026-05-07 13:32 | 35.57452 | 132.74659 | 37905 ft | 433 kts | 275° |
| 2026-05-07 13:33 | 35.58354 | 132.67350 | 37892 ft | 433 kts | 276° |
| 2026-05-07 13:33 | 35.59310 | 132.60019 | 37923 ft | 435 kts | 276° |
| 2026-05-07 13:34 | 35.60768 | 132.48987 | 37897 ft | 434 kts | 276° |
| 2026-05-07 13:35 | 35.61720 | 132.41674 | 37903 ft | 433 kts | 276° |
| 2026-05-07 13:35 | 35.62665 | 132.34362 | 37892 ft | 433 kts | 276° |
| 2026-05-07 13:36 | 35.63596 | 132.27109 | 37896 ft | 432 kts | 276° |
| 2026-05-07 13:36 | 35.64527 | 132.19819 | 37896 ft | 432 kts | 275° |
| 2026-05-07 13:37 | 35.65452 | 132.12558 | 37887 ft | 428 kts | 275° |
| 2026-05-07 13:37 | 35.66367 | 132.05328 | 37879 ft | 427 kts | 275° |
| 2026-05-07 13:38 | 35.67277 | 131.98091 | 37896 ft | 429 kts | 275° |
| 2026-05-07 13:38 | 35.68182 | 131.90870 | 37885 ft | 426 kts | 275° |
| 2026-05-07 13:39 | 35.69081 | 131.83665 | 37884 ft | 426 kts | 275° |
| 2026-05-07 13:39 | 35.69975 | 131.76459 | 37899 ft | 426 kts | 275° |
| 2026-05-07 13:40 | 35.70861 | 131.69285 | 37886 ft | 423 kts | 275° |
| 2026-05-07 13:40 | 35.71739 | 131.62139 | 37878 ft | 422 kts | 275° |
| 2026-05-07 13:41 | 35.72611 | 131.55002 | 37894 ft | 422 kts | 275° |
| 2026-05-07 13:41 | 35.73476 | 131.47899 | 37876 ft | 418 kts | 275° |
| 2026-05-07 13:42 | 35.74330 | 131.40831 | 37870 ft | 418 kts | 275° |
| 2026-05-07 13:42 | 35.75183 | 131.33729 | 37885 ft | 420 kts | 275° |
| 2026-05-07 13:43 | 35.76033 | 131.26640 | 37865 ft | 417 kts | 275° |
| 2026-05-07 13:43 | 35.76874 | 131.19594 | 37871 ft | 416 kts | 274° |
| 2026-05-07 13:44 | 35.77708 | 131.12554 | 37877 ft | 415 kts | 274° |
| 2026-05-07 13:44 | 35.78537 | 131.05530 | 37858 ft | 413 kts | 274° |
| 2026-05-07 13:45 | 35.79357 | 130.98533 | 37856 ft | 413 kts | 274° |
| 2026-05-07 13:45 | 35.80168 | 130.91581 | 37861 ft | 413 kts | 274° |
| 2026-05-07 13:46 | 35.80979 | 130.84603 | 37865 ft | 410 kts | 274° |
| 2026-05-07 13:46 | 35.81781 | 130.77665 | 37869 ft | 409 kts | 274° |
| 2026-05-07 13:47 | 35.82583 | 130.70689 | 37863 ft | 412 kts | 274° |
| 2026-05-07 13:47 | 35.83460 | 130.63701 | 37865 ft | 413 kts | 275° |
| 2026-05-07 13:48 | 35.84371 | 130.56712 | 37866 ft | 413 kts | 275° |
| 2026-05-07 13:48 | 35.85268 | 130.49724 | 37847 ft | 413 kts | 275° |
| 2026-05-07 13:49 | 35.86151 | 130.42742 | 37854 ft | 411 kts | 274° |
| 2026-05-07 13:49 | 35.87020 | 130.35805 | 37857 ft | 409 kts | 274° |
| 2026-05-07 13:50 | 35.87883 | 130.28874 | 37857 ft | 409 kts | 274° |
| 2026-05-07 13:50 | 35.88742 | 130.21947 | 37858 ft | 408 kts | 274° |
| 2026-05-07 13:51 | 35.89597 | 130.15024 | 37857 ft | 408 kts | 274° |
| 2026-05-07 13:51 | 35.90448 | 130.08098 | 37855 ft | 409 kts | 274° |
| 2026-05-07 13:52 | 35.91297 | 130.01149 | 37864 ft | 410 kts | 274° |
| 2026-05-07 13:52 | 35.92142 | 129.94214 | 37856 ft | 409 kts | 274° |
| 2026-05-07 13:53 | 35.92983 | 129.87276 | 37857 ft | 409 kts | 274° |
| 2026-05-07 13:53 | 35.93820 | 129.80343 | 37885 ft | 409 kts | 274° |
| 2026-05-07 13:54 | 35.94654 | 129.73410 | 37853 ft | 408 kts | 274° |
| 2026-05-07 13:54 | 35.95477 | 129.66490 | 37857 ft | 408 kts | 274° |
| 2026-05-07 13:55 | 35.96296 | 129.59573 | 37854 ft | 407 kts | 274° |
| 2026-05-07 13:55 | 35.97159 | 129.52654 | 37859 ft | 409 kts | 276° |
| 2026-05-07 13:56 | 35.98970 | 129.45964 | 37864 ft | 421 kts | 289° |
| 2026-05-07 13:56 | 36.02105 | 129.39743 | 37864 ft | 430 kts | 296° |
| 2026-05-07 13:57 | 36.05614 | 129.33675 | 37872 ft | 432 kts | 297° |
| 2026-05-07 13:57 | 36.09138 | 129.27661 | 37867 ft | 432 kts | 297° |
| 2026-05-07 13:58 | 36.12623 | 129.21663 | 37877 ft | 433 kts | 297° |
| 2026-05-07 13:58 | 36.16121 | 129.15594 | 37875 ft | 433 kts | 297° |
| 2026-05-07 13:59 | 36.19595 | 129.09524 | 37882 ft | 432 kts | 297° |
| 2026-05-07 13:59 | 36.23065 | 129.03452 | 37877 ft | 432 kts | 296° |
| 2026-05-07 14:00 | 36.26537 | 128.97374 | 37885 ft | 432 kts | 297° |
| 2026-05-07 14:00 | 36.30007 | 128.91295 | 37892 ft | 432 kts | 297° |
| 2026-05-07 14:01 | 36.33472 | 128.85216 | 37896 ft | 430 kts | 296° |
| 2026-05-07 14:01 | 36.36915 | 128.79176 | 37881 ft | 428 kts | 296° |
| 2026-05-07 14:02 | 36.40340 | 128.73131 | 37898 ft | 428 kts | 296° |
| 2026-05-07 14:02 | 36.43184 | 128.68100 | 37895 ft | 428 kts | 296° |
| 2026-05-07 14:03 | 36.46604 | 128.62056 | 37896 ft | 425 kts | 296° |
| 2026-05-07 14:03 | 36.49991 | 128.56066 | 37897 ft | 422 kts | 296° |
| 2026-05-07 14:04 | 36.53358 | 128.50091 | 37943 ft | 422 kts | 296° |
| 2026-05-07 14:04 | 36.56714 | 128.44127 | 37901 ft | 419 kts | 296° |
| 2026-05-07 14:05 | 36.60052 | 128.38182 | 37892 ft | 419 kts | 296° |
| 2026-05-07 14:05 | 36.63383 | 128.32240 | 37891 ft | 419 kts | 296° |
| 2026-05-07 14:06 | 36.66745 | 128.26308 | 37894 ft | 419 kts | 296° |
| 2026-05-07 14:06 | 36.70126 | 128.20390 | 37903 ft | 419 kts | 296° |
| 2026-05-07 14:07 | 36.73503 | 128.14480 | 37904 ft | 418 kts | 296° |
| 2026-05-07 14:07 | 36.76858 | 128.08578 | 37918 ft | 417 kts | 296° |
| 2026-05-07 14:08 | 36.80194 | 128.02676 | 37913 ft | 417 kts | 296° |
| 2026-05-07 14:08 | 36.83532 | 127.96774 | 37917 ft | 415 kts | 296° |
| 2026-05-07 14:09 | 36.86857 | 127.90880 | 37919 ft | 415 kts | 295° |
| 2026-05-07 14:09 | 36.90181 | 127.84970 | 37922 ft | 416 kts | 296° |
| 2026-05-07 14:10 | 36.93504 | 127.79056 | 37921 ft | 416 kts | 296° |
| 2026-05-07 14:10 | 36.96814 | 127.73183 | 37922 ft | 416 kts | 296° |
| 2026-05-07 14:11 | 37.00139 | 127.67265 | 37933 ft | 415 kts | 295° |
| 2026-05-07 14:11 | 37.03449 | 127.61357 | 37933 ft | 414 kts | 295° |
| 2026-05-07 14:12 | 37.06751 | 127.55438 | 37936 ft | 415 kts | 295° |
| 2026-05-07 14:12 | 37.10054 | 127.49510 | 37935 ft | 415 kts | 295° |
| 2026-05-07 14:13 | 37.13355 | 127.43589 | 37943 ft | 414 kts | 295° |
| 2026-05-07 14:13 | 37.16650 | 127.37675 | 37947 ft | 415 kts | 295° |
| 2026-05-07 14:14 | 37.19962 | 127.31679 | 37942 ft | 421 kts | 295° |
| 2026-05-07 14:14 | 37.23323 | 127.25608 | 37947 ft | 426 kts | 295° |
| 2026-05-07 14:15 | 37.26709 | 127.19487 | 37951 ft | 428 kts | 295° |
| 2026-05-07 14:15 | 37.30103 | 127.13339 | 37953 ft | 428 kts | 295° |
| 2026-05-07 14:16 | 37.33499 | 127.07188 | 37954 ft | 428 kts | 295° |
| 2026-05-07 14:16 | 37.36887 | 127.01026 | 37952 ft | 429 kts | 295° |
| 2026-05-07 14:17 | 37.39723 | 126.94580 | 37941 ft | 414 kts | 283° |
| 2026-05-07 14:17 | 37.41163 | 126.87722 | 37929 ft | 401 kts | 271° |
| 2026-05-07 14:18 | 37.41391 | 126.80773 | 37935 ft | 397 kts | 266° |
| 2026-05-07 14:18 | 37.41348 | 126.73836 | 37977 ft | 397 kts | 265° |
| 2026-05-07 14:19 | 37.41276 | 126.66877 | 37943 ft | 398 kts | 265° |
| 2026-05-07 14:19 | 37.41223 | 126.59968 | 37952 ft | 397 kts | 266° |
| 2026-05-07 14:20 | 37.41180 | 126.53037 | 37970 ft | 397 kts | 266° |
| 2026-05-07 14:20 | 37.41135 | 126.46092 | 37965 ft | 397 kts | 266° |
| 2026-05-07 14:21 | 37.41089 | 126.39136 | 37965 ft | 398 kts | 266° |
| 2026-05-07 14:21 | 37.41039 | 126.32177 | 37969 ft | 398 kts | 266° |
| 2026-05-07 14:22 | 37.40985 | 126.25219 | 37983 ft | 398 kts | 266° |
| 2026-05-07 14:22 | 37.40924 | 126.18194 | 37967 ft | 400 kts | 266° |
| 2026-05-07 14:23 | 37.40860 | 126.11198 | 37971 ft | 400 kts | 266° |
| 2026-05-07 14:23 | 37.40794 | 126.04275 | 37970 ft | 398 kts | 266° |
| 2026-05-07 14:24 | 37.40722 | 125.97322 | 37979 ft | 398 kts | 266° |
| 2026-05-07 14:24 | 37.40646 | 125.90367 | 37979 ft | 398 kts | 266° |
| 2026-05-07 14:25 | 37.40566 | 125.83407 | 37980 ft | 398 kts | 266° |
| 2026-05-07 14:25 | 37.40482 | 125.76448 | 37980 ft | 398 kts | 266° |
| 2026-05-07 14:26 | 37.40393 | 125.69480 | 37978 ft | 399 kts | 266° |
| 2026-05-07 14:26 | 37.40301 | 125.62494 | 37986 ft | 400 kts | 266° |
| 2026-05-07 14:27 | 37.40205 | 125.55503 | 37978 ft | 400 kts | 266° |
| 2026-05-07 14:27 | 37.40103 | 125.48529 | 38110 ft | 400 kts | 266° |
| 2026-05-07 14:28 | 37.39996 | 125.41528 | 38097 ft | 401 kts | 266° |
| 2026-05-07 14:28 | 37.39887 | 125.34520 | 38092 ft | 401 kts | 266° |
| 2026-05-07 14:29 | 37.39773 | 125.27519 | 38088 ft | 401 kts | 266° |
| 2026-05-07 14:29 | 37.39653 | 125.20512 | 38103 ft | 401 kts | 266° |
| 2026-05-07 14:30 | 37.39532 | 125.13508 | 38098 ft | 400 kts | 266° |
| 2026-05-07 14:30 | 37.39410 | 125.06501 | 38102 ft | 400 kts | 266° |
| 2026-05-07 14:31 | 37.39283 | 124.99510 | 38099 ft | 400 kts | 266° |
| 2026-05-07 14:31 | 37.39150 | 124.92515 | 38111 ft | 400 kts | 267° |
| 2026-05-07 14:32 | 37.38536 | 124.85587 | 38112 ft | 399 kts | 258° |
| 2026-05-07 14:32 | 37.36634 | 124.79013 | 38114 ft | 404 kts | 246° |
| 2026-05-07 14:33 | 37.33798 | 124.72952 | 38144 ft | 406 kts | 243° |
| 2026-05-07 14:33 | 37.30775 | 124.66932 | 38069 ft | 408 kts | 243° |
| 2026-05-07 14:34 | 37.27740 | 124.60923 | 38127 ft | 407 kts | 243° |
| 2026-05-07 14:34 | 37.24724 | 124.54900 | 38123 ft | 407 kts | 243° |
| 2026-05-07 14:35 | 37.21716 | 124.48875 | 38127 ft | 407 kts | 243° |
| 2026-05-07 14:35 | 37.19069 | 124.42633 | 37964 ft | 404 kts | 250° |
| 2026-05-07 14:36 | 37.17413 | 124.35968 | 38034 ft | 400 kts | 261° |
| 2026-05-07 14:36 | 37.17122 | 124.29023 | 38044 ft | 401 kts | 272° |
| 2026-05-07 14:37 | 37.17791 | 124.22063 | 38037 ft | 403 kts | 275° |
| 2026-05-07 14:37 | 37.19018 | 124.11633 | 38039 ft | 403 kts | 275° |
| 2026-05-07 14:38 | 37.19742 | 124.04665 | 38045 ft | 403 kts | 274° |
| 2026-05-07 14:38 | 37.20430 | 123.97696 | 38050 ft | 403 kts | 274° |
| 2026-05-07 14:39 | 37.21112 | 123.90721 | 38056 ft | 403 kts | 274° |
| 2026-05-07 14:39 | 37.21791 | 123.83741 | 38053 ft | 403 kts | 274° |
| 2026-05-07 14:40 | 37.22469 | 123.76757 | 38054 ft | 403 kts | 274° |
| 2026-05-07 14:40 | 37.23144 | 123.69770 | 38056 ft | 403 kts | 274° |
| 2026-05-07 14:41 | 37.23815 | 123.62790 | 38065 ft | 403 kts | 275° |
| 2026-05-07 14:41 | 37.24481 | 123.55809 | 38064 ft | 403 kts | 275° |
| 2026-05-07 14:42 | 37.25143 | 123.48831 | 38064 ft | 403 kts | 275° |
| 2026-05-07 14:42 | 37.25801 | 123.41851 | 38070 ft | 403 kts | 275° |
| 2026-05-07 14:43 | 37.26456 | 123.34872 | 38072 ft | 403 kts | 275° |
| 2026-05-07 14:43 | 37.27105 | 123.27892 | 38073 ft | 403 kts | 274° |
| 2026-05-07 14:44 | 37.27750 | 123.20909 | 38075 ft | 403 kts | 274° |
| 2026-05-07 14:44 | 37.28386 | 123.13974 | 38095 ft | 403 kts | 275° |
| 2026-05-07 14:45 | 37.29024 | 123.06982 | 38079 ft | 403 kts | 275° |
| 2026-05-07 14:45 | 37.29658 | 122.99990 | 38079 ft | 403 kts | 274° |
| 2026-05-07 14:46 | 37.30288 | 122.92990 | 38090 ft | 403 kts | 274° |
| 2026-05-07 14:46 | 37.30914 | 122.85992 | 38097 ft | 404 kts | 275° |
| 2026-05-07 14:47 | 37.31536 | 122.78981 | 38083 ft | 404 kts | 275° |
| 2026-05-07 14:47 | 37.32153 | 122.71995 | 38095 ft | 402 kts | 275° |
| 2026-05-07 14:48 | 37.32764 | 122.65019 | 38094 ft | 402 kts | 275° |
| 2026-05-07 14:48 | 37.33371 | 122.58042 | 38103 ft | 402 kts | 275° |
| 2026-05-07 14:49 | 37.33873 | 122.52238 | 38097 ft | 402 kts | 275° |
| 2026-05-07 14:49 | 37.34474 | 122.45242 | 38102 ft | 402 kts | 275° |
| 2026-05-07 14:50 | 37.35070 | 122.38253 | 38104 ft | 402 kts | 275° |
| 2026-05-07 14:50 | 37.35666 | 122.31253 | 38114 ft | 403 kts | 275° |
| 2026-05-07 14:51 | 37.36256 | 122.24254 | 38100 ft | 403 kts | 275° |
| 2026-05-07 14:51 | 37.36839 | 122.17251 | 38114 ft | 403 kts | 275° |
| 2026-05-07 14:52 | 37.37418 | 122.10250 | 38117 ft | 403 kts | 275° |
| 2026-05-07 14:52 | 37.37993 | 122.03240 | 38115 ft | 403 kts | 275° |
| 2026-05-07 14:53 | 37.38565 | 121.96234 | 38119 ft | 403 kts | 275° |
| 2026-05-07 14:53 | 37.39176 | 121.88707 | 38119 ft | 403 kts | 275° |
| 2026-05-07 14:54 | 37.39739 | 121.81709 | 38123 ft | 401 kts | 275° |
| 2026-05-07 14:54 | 37.40296 | 121.74733 | 38115 ft | 401 kts | 275° |
| 2026-05-07 14:55 | 37.40848 | 121.67766 | 38134 ft | 400 kts | 275° |
| 2026-05-07 14:55 | 37.41396 | 121.60798 | 38135 ft | 400 kts | 275° |
| 2026-05-07 14:56 | 37.41939 | 121.53832 | 38129 ft | 400 kts | 275° |
| 2026-05-07 14:56 | 37.42479 | 121.46859 | 38132 ft | 401 kts | 275° |
| 2026-05-07 14:57 | 37.43016 | 121.39871 | 38135 ft | 401 kts | 275° |
| 2026-05-07 14:57 | 37.43549 | 121.32885 | 38135 ft | 402 kts | 275° |
| 2026-05-07 14:58 | 37.44079 | 121.25886 | 38140 ft | 401 kts | 275° |
| 2026-05-07 14:58 | 37.44603 | 121.18886 | 38141 ft | 402 kts | 275° |
| 2026-05-07 14:59 | 37.45130 | 121.11875 | 38143 ft | 403 kts | 275° |
| 2026-05-07 14:59 | 37.45647 | 121.04854 | 38144 ft | 403 kts | 275° |
| 2026-05-07 15:00 | 37.46159 | 120.97836 | 38145 ft | 403 kts | 275° |
| 2026-05-07 15:00 | 37.46668 | 120.90817 | 38114 ft | 402 kts | 275° |
| 2026-05-07 15:01 | 37.47172 | 120.83823 | 38146 ft | 401 kts | 275° |
| 2026-05-07 15:01 | 37.47671 | 120.76847 | 38150 ft | 400 kts | 275° |
| 2026-05-07 15:02 | 37.48171 | 120.69869 | 38143 ft | 400 kts | 275° |
| 2026-05-07 15:02 | 37.48660 | 120.62891 | 38138 ft | 400 kts | 275° |
| 2026-05-07 15:03 | 37.49142 | 120.55913 | 38144 ft | 400 kts | 275° |
| 2026-05-07 15:03 | 37.49624 | 120.48985 | 38146 ft | 400 kts | 275° |
| 2026-05-07 15:04 | 37.50101 | 120.42006 | 38147 ft | 400 kts | 275° |
| 2026-05-07 15:04 | 37.50572 | 120.35025 | 38144 ft | 401 kts | 275° |
| 2026-05-07 15:05 | 37.51042 | 120.28030 | 38148 ft | 401 kts | 275° |
| 2026-05-07 15:05 | 37.51509 | 120.21025 | 38148 ft | 401 kts | 275° |
| 2026-05-07 15:06 | 37.51972 | 120.14019 | 38145 ft | 401 kts | 275° |
| 2026-05-07 15:06 | 37.52430 | 120.07013 | 38146 ft | 401 kts | 275° |
| 2026-05-07 15:07 | 37.52884 | 120.00005 | 38145 ft | 402 kts | 275° |
| 2026-05-07 15:07 | 37.53335 | 119.92994 | 38126 ft | 400 kts | 275° |
| 2026-05-07 15:08 | 37.53778 | 119.86033 | 38145 ft | 398 kts | 275° |
| 2026-05-07 15:08 | 37.54216 | 119.79091 | 38144 ft | 398 kts | 275° |
| 2026-05-07 15:09 | 37.54651 | 119.72140 | 38140 ft | 398 kts | 275° |
| 2026-05-07 15:09 | 37.55081 | 119.65186 | 38140 ft | 398 kts | 275° |
| 2026-05-07 15:10 | 37.55508 | 119.58229 | 38139 ft | 398 kts | 275° |
| 2026-05-07 15:10 | 37.55930 | 119.51269 | 38140 ft | 399 kts | 275° |
| 2026-05-07 15:11 | 37.56355 | 119.44288 | 38147 ft | 400 kts | 275° |
| 2026-05-07 15:11 | 37.56769 | 119.37297 | 38146 ft | 400 kts | 275° |
| 2026-05-07 15:12 | 37.57178 | 119.30309 | 38151 ft | 400 kts | 275° |
| 2026-05-07 15:12 | 37.57585 | 119.23309 | 38139 ft | 400 kts | 275° |
| 2026-05-07 15:13 | 37.57991 | 119.16287 | 38152 ft | 403 kts | 275° |
| 2026-05-07 15:13 | 37.58326 | 119.10429 | 38154 ft | 403 kts | 275° |
| 2026-05-07 15:14 | 37.58726 | 119.03373 | 38152 ft | 403 kts | 275° |
| 2026-05-07 15:14 | 37.59121 | 118.96320 | 38115 ft | 402 kts | 275° |
| 2026-05-07 15:15 | 37.59510 | 118.89289 | 38152 ft | 402 kts | 275° |
| 2026-05-07 15:15 | 37.59895 | 118.82271 | 38151 ft | 401 kts | 275° |
| 2026-05-07 15:16 | 37.60276 | 118.75244 | 38151 ft | 402 kts | 275° |
| 2026-05-07 15:16 | 37.60655 | 118.68218 | 38151 ft | 402 kts | 275° |
| 2026-05-07 15:17 | 37.61030 | 118.61186 | 38152 ft | 402 kts | 275° |
| 2026-05-07 15:17 | 37.61397 | 118.54140 | 38154 ft | 403 kts | 275° |
| 2026-05-07 15:18 | 37.61762 | 118.47083 | 38157 ft | 403 kts | 275° |
| 2026-05-07 15:18 | 37.62123 | 118.40028 | 38157 ft | 403 kts | 275° |
| 2026-05-07 15:19 | 37.62481 | 118.32964 | 38157 ft | 404 kts | 275° |
| 2026-05-07 15:19 | 37.62840 | 118.25877 | 38156 ft | 405 kts | 275° |
| 2026-05-07 15:20 | 37.63188 | 118.18778 | 38157 ft | 405 kts | 275° |
| 2026-05-07 15:20 | 37.63531 | 118.11727 | 38157 ft | 405 kts | 275° |
| 2026-05-07 15:21 | 37.63872 | 118.04626 | 38158 ft | 406 kts | 275° |
| 2026-05-07 15:21 | 37.64212 | 117.97504 | 38159 ft | 407 kts | 275° |
| 2026-05-07 15:22 | 37.64554 | 117.90373 | 38159 ft | 407 kts | 275° |
| 2026-05-07 15:22 | 37.64883 | 117.83234 | 38159 ft | 407 kts | 275° |
| 2026-05-07 15:23 | 37.65206 | 117.76100 | 38162 ft | 407 kts | 275° |
| 2026-05-07 15:23 | 37.65527 | 117.68965 | 38162 ft | 407 kts | 275° |
| 2026-05-07 15:24 | 37.65846 | 117.61826 | 38162 ft | 407 kts | 275° |
| 2026-05-07 15:24 | 37.66160 | 117.54689 | 38162 ft | 407 kts | 275° |
| 2026-05-07 15:25 | 37.66469 | 117.47550 | 38162 ft | 407 kts | 275° |
| 2026-05-07 15:25 | 37.66775 | 117.40392 | 38162 ft | 409 kts | 275° |
| 2026-05-07 15:26 | 37.67078 | 117.33225 | 38162 ft | 409 kts | 275° |
| 2026-05-07 15:26 | 37.67376 | 117.26048 | 38162 ft | 409 kts | 275° |
| 2026-05-07 15:27 | 37.67671 | 117.18876 | 38161 ft | 409 kts | 275° |
| 2026-05-07 15:27 | 37.67960 | 117.11693 | 38162 ft | 410 kts | 275° |
| 2026-05-07 15:28 | 37.68245 | 117.04510 | 38165 ft | 410 kts | 275° |
| 2026-05-07 15:28 | 37.68526 | 116.97318 | 38146 ft | 410 kts | 275° |
| 2026-05-07 15:29 | 37.68801 | 116.90159 | 38167 ft | 407 kts | 275° |
| 2026-05-07 15:29 | 37.69069 | 116.83026 | 38167 ft | 406 kts | 275° |
| 2026-05-07 15:30 | 37.69335 | 116.75913 | 38164 ft | 405 kts | 275° |
| 2026-05-07 15:30 | 37.69596 | 116.68854 | 38170 ft | 405 kts | 275° |
| 2026-05-07 15:31 | 37.69853 | 116.61749 | 38169 ft | 405 kts | 275° |
| 2026-05-07 15:31 | 37.70105 | 116.54635 | 38171 ft | 405 kts | 275° |
| 2026-05-07 15:32 | 37.70352 | 116.47537 | 38170 ft | 404 kts | 275° |
| 2026-05-07 15:32 | 37.70601 | 116.40447 | 38170 ft | 404 kts | 275° |
| 2026-05-07 15:33 | 37.70838 | 116.33362 | 38170 ft | 404 kts | 275° |
| 2026-05-07 15:33 | 37.71070 | 116.26271 | 38170 ft | 404 kts | 275° |
| 2026-05-07 15:34 | 37.71299 | 116.19187 | 38173 ft | 403 kts | 275° |
| 2026-05-07 15:34 | 37.71524 | 116.12106 | 38173 ft | 403 kts | 275° |
| 2026-05-07 15:35 | 37.71746 | 116.05038 | 38173 ft | 403 kts | 275° |
| 2026-05-07 15:35 | 37.71963 | 115.97970 | 38176 ft | 403 kts | 275° |
| 2026-05-07 15:36 | 37.72176 | 115.90895 | 38141 ft | 402 kts | 275° |
| 2026-05-07 15:36 | 37.72383 | 115.83862 | 38180 ft | 400 kts | 275° |
| 2026-05-07 15:37 | 37.72585 | 115.76853 | 38171 ft | 399 kts | 275° |
| 2026-05-07 15:37 | 37.72784 | 115.69843 | 38178 ft | 399 kts | 275° |
| 2026-05-07 15:38 | 37.72978 | 115.62841 | 38179 ft | 399 kts | 275° |
| 2026-05-07 15:38 | 37.73169 | 115.55827 | 38183 ft | 400 kts | 275° |
| 2026-05-07 15:39 | 37.73355 | 115.48807 | 38183 ft | 400 kts | 275° |
| 2026-05-07 15:39 | 37.73537 | 115.41786 | 38185 ft | 400 kts | 275° |
| 2026-05-07 15:40 | 37.73718 | 115.34810 | 38174 ft | 400 kts | 275° |
| 2026-05-07 15:40 | 37.73890 | 115.27781 | 38179 ft | 400 kts | 275° |
| 2026-05-07 15:41 | 37.74058 | 115.20748 | 38181 ft | 401 kts | 275° |
| 2026-05-07 15:41 | 37.74223 | 115.13703 | 38179 ft | 401 kts | 275° |
| 2026-05-07 15:42 | 37.74384 | 115.06674 | 38179 ft | 401 kts | 275° |
| 2026-05-07 15:42 | 37.74542 | 114.99623 | 38182 ft | 401 kts | 275° |
| 2026-05-07 15:43 | 37.74696 | 114.92574 | 38184 ft | 402 kts | 275° |
| 2026-05-07 15:43 | 37.74850 | 114.85517 | 38135 ft | 402 kts | 275° |
| 2026-05-07 15:44 | 37.74994 | 114.78466 | 38183 ft | 401 kts | 274° |
| 2026-05-07 15:44 | 37.75132 | 114.71426 | 38189 ft | 401 kts | 274° |
| 2026-05-07 15:45 | 37.75267 | 114.64390 | 38178 ft | 401 kts | 274° |
| 2026-05-07 15:45 | 37.75399 | 114.57354 | 38177 ft | 401 kts | 274° |
| 2026-05-07 15:46 | 37.75595 | 114.46793 | 38188 ft | 401 kts | 274° |
| 2026-05-07 15:47 | 37.75720 | 114.39750 | 38180 ft | 401 kts | 274° |
| 2026-05-07 15:47 | 37.75833 | 114.32706 | 38182 ft | 401 kts | 274° |
| 2026-05-07 15:48 | 37.75943 | 114.25661 | 38201 ft | 401 kts | 274° |
| 2026-05-07 15:48 | 37.76052 | 114.18614 | 38201 ft | 401 kts | 274° |
| 2026-05-07 15:49 | 37.76157 | 114.11570 | 38202 ft | 401 kts | 274° |
| 2026-05-07 15:49 | 37.76261 | 114.04512 | 38196 ft | 402 kts | 274° |
| 2026-05-07 15:50 | 37.76358 | 113.97496 | 38228 ft | 402 kts | 274° |
| 2026-05-07 15:50 | 37.76450 | 113.90434 | 38233 ft | 402 kts | 274° |
| 2026-05-07 15:51 | 37.76537 | 113.83326 | 38237 ft | 401 kts | 274° |
| 2026-05-07 15:51 | 37.76622 | 113.76286 | 38231 ft | 401 kts | 274° |
| 2026-05-07 15:52 | 37.76704 | 113.69295 | 38241 ft | 401 kts | 273° |
| 2026-05-07 15:52 | 37.76777 | 113.62243 | 38245 ft | 401 kts | 273° |
| 2026-05-07 15:53 | 37.76847 | 113.55187 | 38252 ft | 401 kts | 273° |
| 2026-05-07 15:53 | 37.76914 | 113.48137 | 38254 ft | 401 kts | 273° |
| 2026-05-07 15:54 | 37.76977 | 113.41077 | 38258 ft | 402 kts | 273° |
| 2026-05-07 15:54 | 37.77036 | 113.34011 | 38259 ft | 403 kts | 273° |
| 2026-05-07 15:55 | 37.77096 | 113.26932 | 38261 ft | 403 kts | 273° |
| 2026-05-07 15:55 | 37.77145 | 113.19852 | 38266 ft | 403 kts | 273° |
| 2026-05-07 15:56 | 37.77189 | 113.12778 | 38256 ft | 403 kts | 273° |
| 2026-05-07 15:56 | 37.77230 | 113.05705 | 38253 ft | 403 kts | 273° |
| 2026-05-07 15:57 | 37.77269 | 112.98631 | 38254 ft | 403 kts | 273° |
| 2026-05-07 15:57 | 37.77302 | 112.91551 | 38246 ft | 403 kts | 273° |
| 2026-05-07 15:58 | 37.77332 | 112.84461 | 38242 ft | 403 kts | 273° |
| 2026-05-07 15:58 | 37.77357 | 112.77376 | 38232 ft | 403 kts | 273° |
| 2026-05-07 15:59 | 37.77378 | 112.70299 | 38238 ft | 403 kts | 273° |
| 2026-05-07 15:59 | 37.77396 | 112.63217 | 38238 ft | 404 kts | 272° |
| 2026-05-07 16:00 | 37.77410 | 112.56113 | 38235 ft | 404 kts | 272° |
| 2026-05-07 16:00 | 37.77421 | 112.49014 | 38243 ft | 404 kts | 272° |
| 2026-05-07 16:01 | 37.77422 | 112.43109 | 38243 ft | 404 kts | 272° |
| 2026-05-07 16:01 | 37.77462 | 112.36001 | 38243 ft | 404 kts | 275° |
| 2026-05-07 16:02 | 37.78017 | 112.28948 | 38247 ft | 403 kts | 278° |
| 2026-05-07 16:02 | 37.78692 | 112.21919 | 38246 ft | 403 kts | 278° |
| 2026-05-07 16:03 | 37.79384 | 112.14891 | 38265 ft | 403 kts | 278° |
| 2026-05-07 16:03 | 37.80068 | 112.07849 | 38261 ft | 404 kts | 278° |
| 2026-05-07 16:04 | 37.80743 | 112.00792 | 38268 ft | 405 kts | 278° |
| 2026-05-07 16:04 | 37.81412 | 111.93722 | 38260 ft | 405 kts | 278° |
| 2026-05-07 16:05 | 37.82072 | 111.86703 | 38258 ft | 405 kts | 278° |
| 2026-05-07 16:05 | 37.82733 | 111.79643 | 38267 ft | 405 kts | 277° |
| 2026-05-07 16:06 | 37.83390 | 111.72575 | 38284 ft | 405 kts | 277° |
| 2026-05-07 16:06 | 37.84105 | 111.65490 | 38325 ft | 406 kts | 278° |
| 2026-05-07 16:07 | 37.84899 | 111.58432 | 38658 ft | 400 kts | 278° |
| 2026-05-07 16:07 | 37.85285 | 111.54988 | 39148 ft | 392 kts | 278° |
| 2026-05-07 16:07 | 37.85663 | 111.51583 | 39351 ft | 391 kts | 278° |
| 2026-05-07 16:07 | 37.86032 | 111.48178 | 39484 ft | 390 kts | 278° |
| 2026-05-07 16:08 | 37.86362 | 111.44776 | 39638 ft | 389 kts | 277° |
| 2026-05-07 16:08 | 37.86939 | 111.37951 | 39764 ft | 391 kts | 277° |
| 2026-05-07 16:08 | 37.87221 | 111.34528 | 39891 ft | 391 kts | 277° |
| 2026-05-07 16:09 | 37.87507 | 111.31106 | 40039 ft | 391 kts | 277° |
| 2026-05-07 16:09 | 37.87798 | 111.27682 | 40141 ft | 392 kts | 277° |
| 2026-05-07 16:09 | 37.88092 | 111.24257 | 40231 ft | 393 kts | 277° |
| 2026-05-07 16:10 | 37.88688 | 111.17350 | 40249 ft | 397 kts | 277° |
| 2026-05-07 16:10 | 37.89288 | 111.10354 | 40240 ft | 401 kts | 277° |
| 2026-05-07 16:11 | 37.89889 | 111.03300 | 40238 ft | 405 kts | 277° |
| 2026-05-07 16:11 | 37.90488 | 110.96202 | 40235 ft | 406 kts | 277° |
| 2026-05-07 16:12 | 37.91083 | 110.89122 | 40235 ft | 407 kts | 277° |
| 2026-05-07 16:12 | 37.91679 | 110.81944 | 40223 ft | 408 kts | 277° |
| 2026-05-07 16:13 | 37.92267 | 110.74807 | 40227 ft | 408 kts | 277° |
| 2026-05-07 16:13 | 37.92849 | 110.67710 | 40222 ft | 408 kts | 277° |
| 2026-05-07 16:14 | 37.93493 | 110.60569 | 40204 ft | 408 kts | 278° |
| 2026-05-07 16:14 | 37.94239 | 110.53456 | 40203 ft | 407 kts | 278° |
| 2026-05-07 16:15 | 37.94983 | 110.46332 | 40196 ft | 408 kts | 278° |
| 2026-05-07 16:15 | 37.95704 | 110.39210 | 40206 ft | 408 kts | 278° |
| 2026-05-07 16:16 | 37.96412 | 110.32077 | 40201 ft | 408 kts | 278° |
| 2026-05-07 16:16 | 37.97115 | 110.24943 | 40201 ft | 408 kts | 278° |
| 2026-05-07 16:17 | 37.97814 | 110.17816 | 40200 ft | 408 kts | 278° |
| 2026-05-07 16:17 | 37.98511 | 110.10680 | 40201 ft | 408 kts | 277° |
| 2026-05-07 16:18 | 37.99203 | 110.03530 | 40198 ft | 409 kts | 277° |
| 2026-05-07 16:18 | 37.99893 | 109.96360 | 40200 ft | 410 kts | 277° |
| 2026-05-07 16:19 | 38.00579 | 109.89185 | 40192 ft | 410 kts | 277° |
| 2026-05-07 16:19 | 38.01262 | 109.82004 | 40197 ft | 410 kts | 277° |
| 2026-05-07 16:20 | 38.01941 | 109.74821 | 40194 ft | 411 kts | 277° |
| 2026-05-07 16:20 | 38.02617 | 109.67618 | 40188 ft | 412 kts | 277° |
| 2026-05-07 16:21 | 38.03289 | 109.60396 | 40185 ft | 412 kts | 277° |
| 2026-05-07 16:21 | 38.03953 | 109.53219 | 40201 ft | 412 kts | 277° |
| 2026-05-07 16:22 | 38.04621 | 109.45947 | 40179 ft | 413 kts | 277° |
| 2026-05-07 16:22 | 38.05277 | 109.38759 | 40191 ft | 413 kts | 277° |
| 2026-05-07 16:23 | 38.05935 | 109.31507 | 40188 ft | 414 kts | 277° |
| 2026-05-07 16:23 | 38.06589 | 109.24254 | 40189 ft | 414 kts | 277° |
| 2026-05-07 16:24 | 38.07238 | 109.16997 | 40185 ft | 414 kts | 277° |
| 2026-05-07 16:24 | 38.07883 | 109.09737 | 40193 ft | 414 kts | 276° |
| 2026-05-07 16:25 | 38.08524 | 109.02473 | 40191 ft | 414 kts | 276° |
| 2026-05-07 16:25 | 38.09161 | 108.95203 | 40193 ft | 414 kts | 276° |
| 2026-05-07 16:26 | 38.09794 | 108.87930 | 40180 ft | 414 kts | 276° |
| 2026-05-07 16:26 | 38.10422 | 108.80660 | 40191 ft | 414 kts | 276° |
| 2026-05-07 16:27 | 38.11046 | 108.73386 | 40183 ft | 414 kts | 276° |
| 2026-05-07 16:27 | 38.11665 | 108.66109 | 40188 ft | 414 kts | 276° |
| 2026-05-07 16:28 | 38.12279 | 108.58840 | 40193 ft | 414 kts | 276° |
| 2026-05-07 16:28 | 38.12889 | 108.51567 | 40179 ft | 414 kts | 276° |
| 2026-05-07 16:29 | 38.13495 | 108.44290 | 40178 ft | 414 kts | 276° |
| 2026-05-07 16:29 | 38.14097 | 108.37008 | 40185 ft | 415 kts | 276° |
| 2026-05-07 16:30 | 38.14696 | 108.29714 | 40180 ft | 416 kts | 276° |
| 2026-05-07 16:30 | 38.15388 | 108.22425 | 40184 ft | 415 kts | 277° |
| 2026-05-07 16:31 | 38.16134 | 108.15147 | 40183 ft | 415 kts | 277° |
| 2026-05-07 16:31 | 38.16866 | 108.07865 | 40186 ft | 415 kts | 277° |
| 2026-05-07 16:32 | 38.17580 | 108.00581 | 40184 ft | 415 kts | 277° |
| 2026-05-07 16:32 | 38.18284 | 107.93295 | 40177 ft | 415 kts | 277° |
| 2026-05-07 16:33 | 38.18983 | 107.86016 | 40187 ft | 415 kts | 276° |
| 2026-05-07 16:33 | 38.19679 | 107.78730 | 40184 ft | 415 kts | 276° |
| 2026-05-07 16:34 | 38.20389 | 107.71451 | 40179 ft | 415 kts | 277° |
| 2026-05-07 16:34 | 38.21227 | 107.64176 | 40182 ft | 416 kts | 278° |
| 2026-05-07 16:35 | 38.22084 | 107.56944 | 40181 ft | 416 kts | 278° |
| 2026-05-07 16:35 | 38.22924 | 107.49660 | 40181 ft | 416 kts | 277° |
| 2026-05-07 16:36 | 38.23747 | 107.42371 | 40179 ft | 416 kts | 277° |
| 2026-05-07 16:36 | 38.24562 | 107.35072 | 40178 ft | 417 kts | 277° |
| 2026-05-07 16:37 | 38.25375 | 107.27759 | 40176 ft | 418 kts | 277° |
| 2026-05-07 16:37 | 38.26185 | 107.20439 | 40176 ft | 418 kts | 277° |
| 2026-05-07 16:38 | 38.26991 | 107.13116 | 40170 ft | 418 kts | 277° |
| 2026-05-07 16:38 | 38.27792 | 107.05787 | 40169 ft | 418 kts | 277° |
| 2026-05-07 16:39 | 38.28590 | 106.98451 | 40165 ft | 419 kts | 277° |
| 2026-05-07 16:39 | 38.29385 | 106.91099 | 40167 ft | 420 kts | 277° |
| 2026-05-07 16:40 | 38.30175 | 106.83738 | 40163 ft | 420 kts | 277° |
| 2026-05-07 16:40 | 38.30961 | 106.76380 | 40156 ft | 420 kts | 277° |
| 2026-05-07 16:41 | 38.31743 | 106.69011 | 40140 ft | 420 kts | 277° |
| 2026-05-07 16:41 | 38.32522 | 106.61632 | 40147 ft | 421 kts | 276° |
| 2026-05-07 16:42 | 38.33297 | 106.54235 | 40154 ft | 422 kts | 276° |
| 2026-05-07 16:42 | 38.34068 | 106.46836 | 40145 ft | 421 kts | 276° |
| 2026-05-07 16:43 | 38.35225 | 106.39511 | 40147 ft | 424 kts | 285° |
| 2026-05-07 16:43 | 38.37193 | 106.32427 | 40149 ft | 425 kts | 288° |
| 2026-05-07 16:44 | 38.39291 | 106.25413 | 40149 ft | 427 kts | 288° |
| 2026-05-07 16:44 | 38.41422 | 106.18334 | 40151 ft | 428 kts | 288° |
| 2026-05-07 16:45 | 38.43537 | 106.11240 | 40148 ft | 428 kts | 288° |
| 2026-05-07 16:45 | 38.45655 | 106.04141 | 40154 ft | 428 kts | 288° |
| 2026-05-07 16:46 | 38.47764 | 105.97038 | 40194 ft | 428 kts | 288° |
| 2026-05-07 16:46 | 38.49868 | 105.89930 | 40158 ft | 428 kts | 287° |
| 2026-05-07 16:47 | 38.51972 | 105.82807 | 40158 ft | 429 kts | 288° |
| 2026-05-07 16:47 | 38.54073 | 105.75687 | 40151 ft | 428 kts | 288° |
| 2026-05-07 16:48 | 38.56166 | 105.68573 | 40147 ft | 428 kts | 288° |
| 2026-05-07 16:48 | 38.58254 | 105.61454 | 40134 ft | 429 kts | 288° |
| 2026-05-07 16:49 | 38.60347 | 105.54300 | 40146 ft | 430 kts | 288° |
| 2026-05-07 16:49 | 38.62439 | 105.47128 | 40136 ft | 431 kts | 288° |
| 2026-05-07 16:50 | 38.64175 | 105.41161 | 40145 ft | 431 kts | 288° |
| 2026-05-07 16:50 | 38.66263 | 105.33973 | 40132 ft | 431 kts | 288° |
| 2026-05-07 16:51 | 38.68344 | 105.26782 | 40127 ft | 431 kts | 288° |
| 2026-05-07 16:51 | 38.70426 | 105.19573 | 40130 ft | 433 kts | 288° |
| 2026-05-07 16:52 | 38.72510 | 105.12334 | 40130 ft | 433 kts | 288° |
| 2026-05-07 16:52 | 38.74283 | 105.04981 | 40136 ft | 432 kts | 283° |
| 2026-05-07 16:53 | 38.75809 | 104.97536 | 40135 ft | 432 kts | 282° |
| 2026-05-07 16:53 | 38.77573 | 104.90175 | 40129 ft | 434 kts | 288° |
| 2026-05-07 16:54 | 38.79775 | 104.82955 | 40124 ft | 436 kts | 289° |
| 2026-05-07 16:54 | 38.82052 | 104.75751 | 40120 ft | 436 kts | 289° |
| 2026-05-07 16:55 | 38.84331 | 104.68546 | 40121 ft | 436 kts | 289° |
| 2026-05-07 16:55 | 38.86596 | 104.61336 | 40117 ft | 436 kts | 289° |
| 2026-05-07 16:56 | 38.88854 | 104.54115 | 40116 ft | 436 kts | 289° |
| 2026-05-07 16:56 | 38.92234 | 104.43261 | 40113 ft | 437 kts | 289° |
| 2026-05-07 16:57 | 38.94484 | 104.36014 | 40118 ft | 437 kts | 289° |
| 2026-05-07 16:57 | 38.96718 | 104.28800 | 40111 ft | 437 kts | 288° |
| 2026-05-07 16:58 | 38.98962 | 104.21537 | 40106 ft | 437 kts | 288° |
| 2026-05-07 16:58 | 39.01205 | 104.14253 | 40103 ft | 439 kts | 288° |
| 2026-05-07 16:59 | 39.03449 | 104.06949 | 40096 ft | 440 kts | 288° |
| 2026-05-07 16:59 | 39.05692 | 103.99631 | 40103 ft | 440 kts | 288° |
| 2026-05-07 17:00 | 39.07930 | 103.92308 | 40102 ft | 440 kts | 288° |
| 2026-05-07 17:00 | 39.10162 | 103.84986 | 40097 ft | 440 kts | 288° |
| 2026-05-07 17:01 | 39.12395 | 103.77638 | 40100 ft | 441 kts | 288° |
| 2026-05-07 17:01 | 39.14630 | 103.70263 | 40097 ft | 442 kts | 288° |
| 2026-05-07 17:02 | 39.16862 | 103.62881 | 40099 ft | 442 kts | 288° |
| 2026-05-07 17:02 | 39.19090 | 103.55493 | 40098 ft | 442 kts | 288° |
| 2026-05-07 17:03 | 39.21313 | 103.48100 | 40096 ft | 442 kts | 288° |
| 2026-05-07 17:03 | 39.23535 | 103.40689 | 40092 ft | 444 kts | 288° |
| 2026-05-07 17:04 | 39.25760 | 103.33247 | 40094 ft | 444 kts | 288° |
| 2026-05-07 17:04 | 39.27964 | 103.25852 | 40094 ft | 445 kts | 288° |
| 2026-05-07 17:05 | 39.30182 | 103.18397 | 40089 ft | 445 kts | 288° |
| 2026-05-07 17:05 | 39.32395 | 103.10936 | 40089 ft | 445 kts | 289° |
| 2026-05-07 17:06 | 39.34604 | 103.03468 | 40086 ft | 445 kts | 289° |
| 2026-05-07 17:06 | 39.36826 | 102.95941 | 40086 ft | 445 kts | 288° |
| 2026-05-07 17:07 | 39.38993 | 102.88501 | 40089 ft | 445 kts | 288° |
| 2026-05-07 17:07 | 39.41161 | 102.81004 | 40088 ft | 445 kts | 288° |
| 2026-05-07 17:08 | 39.42687 | 102.73283 | 40083 ft | 444 kts | 279° |
| 2026-05-07 17:08 | 39.43744 | 102.65410 | 40083 ft | 444 kts | 278° |
| 2026-05-07 17:09 | 39.44663 | 102.57512 | 40084 ft | 444 kts | 277° |
| 2026-05-07 17:09 | 39.45541 | 102.49600 | 40082 ft | 444 kts | 277° |
| 2026-05-07 17:10 | 39.46432 | 102.41694 | 40080 ft | 444 kts | 278° |
| 2026-05-07 17:10 | 39.47334 | 102.33778 | 40083 ft | 445 kts | 278° |
| 2026-05-07 17:11 | 39.48234 | 102.25859 | 40073 ft | 445 kts | 278° |
| 2026-05-07 17:11 | 39.49130 | 102.17930 | 40070 ft | 445 kts | 278° |
| 2026-05-07 17:12 | 39.50019 | 102.10003 | 40070 ft | 445 kts | 277° |
| 2026-05-07 17:12 | 39.50903 | 102.02071 | 40073 ft | 445 kts | 278° |
| 2026-05-07 17:13 | 39.51774 | 101.94195 | 40069 ft | 445 kts | 277° |
| 2026-05-07 17:13 | 39.52648 | 101.86253 | 40066 ft | 445 kts | 277° |
| 2026-05-07 17:14 | 39.53516 | 101.78312 | 40069 ft | 445 kts | 277° |
| 2026-05-07 17:14 | 39.54378 | 101.70369 | 40072 ft | 445 kts | 277° |
| 2026-05-07 17:15 | 39.55235 | 101.62426 | 40069 ft | 445 kts | 277° |
| 2026-05-07 17:15 | 39.56084 | 101.54493 | 40073 ft | 444 kts | 277° |
| 2026-05-07 17:16 | 39.56928 | 101.46570 | 40067 ft | 444 kts | 277° |
| 2026-05-07 17:16 | 39.57766 | 101.38642 | 40067 ft | 444 kts | 277° |
| 2026-05-07 17:17 | 39.58600 | 101.30710 | 40069 ft | 444 kts | 277° |
| 2026-05-07 17:17 | 39.59427 | 101.22784 | 40063 ft | 444 kts | 277° |
| 2026-05-07 17:18 | 39.60249 | 101.14856 | 40057 ft | 444 kts | 277° |
| 2026-05-07 17:18 | 39.61065 | 101.06928 | 40059 ft | 444 kts | 277° |
| 2026-05-07 17:19 | 39.61876 | 100.98994 | 40060 ft | 444 kts | 277° |
| 2026-05-07 17:19 | 39.62681 | 100.91063 | 40060 ft | 444 kts | 277° |
| 2026-05-07 17:20 | 39.63481 | 100.83122 | 40054 ft | 444 kts | 277° |
| 2026-05-07 17:20 | 39.64276 | 100.75188 | 40054 ft | 444 kts | 277° |
| 2026-05-07 17:21 | 39.65066 | 100.67245 | 40057 ft | 444 kts | 277° |
| 2026-05-07 17:21 | 39.65849 | 100.59305 | 40057 ft | 444 kts | 277° |
| 2026-05-07 17:22 | 39.66628 | 100.51360 | 40058 ft | 444 kts | 277° |
| 2026-05-07 17:22 | 39.67401 | 100.43421 | 40053 ft | 443 kts | 276° |
| 2026-05-07 17:23 | 39.68168 | 100.35475 | 40052 ft | 444 kts | 276° |
| 2026-05-07 17:23 | 39.68930 | 100.27531 | 40054 ft | 444 kts | 276° |
| 2026-05-07 17:24 | 39.69687 | 100.19579 | 40058 ft | 444 kts | 276° |
| 2026-05-07 17:24 | 39.70438 | 100.11629 | 40055 ft | 444 kts | 276° |
| 2026-05-07 17:25 | 39.71179 | 100.03729 | 40055 ft | 443 kts | 276° |
| 2026-05-07 17:25 | 39.71919 | 99.95776 | 40055 ft | 443 kts | 276° |
| 2026-05-07 17:26 | 39.72654 | 99.87823 | 40053 ft | 444 kts | 276° |
| 2026-05-07 17:26 | 39.73384 | 99.79867 | 40054 ft | 443 kts | 276° |
| 2026-05-07 17:27 | 39.74108 | 99.71911 | 40053 ft | 443 kts | 276° |
| 2026-05-07 17:27 | 39.74826 | 99.63962 | 40053 ft | 443 kts | 276° |
| 2026-05-07 17:28 | 39.75539 | 99.56005 | 40051 ft | 443 kts | 276° |
| 2026-05-07 17:28 | 39.76246 | 99.48048 | 40050 ft | 443 kts | 276° |
| 2026-05-07 17:29 | 39.76947 | 99.40096 | 40051 ft | 443 kts | 276° |
| 2026-05-07 17:29 | 39.77642 | 99.32151 | 40050 ft | 442 kts | 276° |
| 2026-05-07 17:30 | 39.78332 | 99.24202 | 40053 ft | 442 kts | 276° |
| 2026-05-07 17:30 | 39.79016 | 99.16257 | 40050 ft | 442 kts | 275° |
| 2026-05-07 17:31 | 39.79695 | 99.08304 | 40054 ft | 442 kts | 275° |
| 2026-05-07 17:31 | 39.80369 | 99.00354 | 40053 ft | 442 kts | 275° |
| 2026-05-07 17:32 | 39.81021 | 98.92400 | 40050 ft | 442 kts | 274° |
| 2026-05-07 17:32 | 39.81451 | 98.85776 | 40051 ft | 442 kts | 274° |
| 2026-05-07 17:33 | 39.82005 | 98.76458 | 40056 ft | 442 kts | 274° |
| 2026-05-07 17:33 | 39.82492 | 98.68486 | 40056 ft | 442 kts | 274° |
| 2026-05-07 17:34 | 39.82989 | 98.60505 | 40053 ft | 443 kts | 274° |
| 2026-05-07 17:34 | 39.83480 | 98.52573 | 40053 ft | 443 kts | 274° |
| 2026-05-07 17:35 | 39.83968 | 98.44591 | 40051 ft | 443 kts | 274° |
| 2026-05-07 17:35 | 39.84334 | 98.36595 | 40051 ft | 442 kts | 268° |
| 2026-05-07 17:36 | 39.83760 | 98.28635 | 40056 ft | 442 kts | 263° |
| 2026-05-07 17:36 | 39.82908 | 98.20702 | 40077 ft | 443 kts | 262° |
| 2026-05-07 17:37 | 39.82007 | 98.12773 | 40087 ft | 443 kts | 262° |
| 2026-05-07 17:37 | 39.81112 | 98.04844 | 40088 ft | 443 kts | 262° |
| 2026-05-07 17:38 | 39.80222 | 97.96917 | 40104 ft | 443 kts | 262° |
| 2026-05-07 17:38 | 39.79332 | 97.88988 | 40108 ft | 444 kts | 262° |
| 2026-05-07 17:39 | 39.78586 | 97.82390 | 40110 ft | 444 kts | 261° |
| 2026-05-07 17:39 | 39.77682 | 97.74450 | 40119 ft | 444 kts | 261° |
| 2026-05-07 17:40 | 39.76773 | 97.66513 | 40151 ft | 443 kts | 261° |
| 2026-05-07 17:40 | 39.75861 | 97.58594 | 40158 ft | 443 kts | 261° |
| 2026-05-07 17:41 | 39.74932 | 97.50680 | 40155 ft | 444 kts | 260° |
| 2026-05-07 17:41 | 39.73884 | 97.42775 | 40156 ft | 444 kts | 259° |
| 2026-05-07 17:42 | 39.72805 | 97.34870 | 40166 ft | 445 kts | 259° |
| 2026-05-07 17:42 | 39.71732 | 97.26933 | 40168 ft | 446 kts | 260° |
| 2026-05-07 17:43 | 39.70690 | 97.19005 | 40194 ft | 444 kts | 260° |
| 2026-05-07 17:43 | 39.69652 | 97.11100 | 40192 ft | 444 kts | 260° |
| 2026-05-07 17:44 | 39.68608 | 97.03209 | 40184 ft | 443 kts | 259° |
| 2026-05-07 17:44 | 39.67552 | 96.95315 | 40197 ft | 444 kts | 260° |
| 2026-05-07 17:45 | 39.66493 | 96.87425 | 40180 ft | 442 kts | 260° |
| 2026-05-07 17:45 | 39.65441 | 96.79560 | 40204 ft | 444 kts | 259° |
| 2026-05-07 17:46 | 39.64368 | 96.71656 | 40226 ft | 445 kts | 259° |
| 2026-05-07 17:46 | 39.63288 | 96.63748 | 40235 ft | 445 kts | 259° |
| 2026-05-07 17:47 | 39.62237 | 96.55835 | 40232 ft | 445 kts | 260° |
| 2026-05-07 17:47 | 39.61236 | 96.47917 | 40238 ft | 445 kts | 260° |
| 2026-05-07 17:48 | 39.60233 | 96.40052 | 40244 ft | 446 kts | 259° |
| 2026-05-07 17:48 | 39.59210 | 96.32122 | 40236 ft | 446 kts | 260° |
| 2026-05-07 17:49 | 39.58174 | 96.24219 | 40253 ft | 445 kts | 259° |
| 2026-05-07 17:49 | 39.57134 | 96.16312 | 40253 ft | 446 kts | 259° |
| 2026-05-07 17:50 | 39.56105 | 96.08393 | 40240 ft | 445 kts | 260° |
| 2026-05-07 17:50 | 39.55211 | 96.00435 | 40248 ft | 448 kts | 261° |
| 2026-05-07 17:51 | 39.54370 | 95.92441 | 40239 ft | 447 kts | 261° |
| 2026-05-07 17:51 | 39.53505 | 95.84467 | 40237 ft | 447 kts | 261° |
| 2026-05-07 17:52 | 39.52617 | 95.76496 | 40276 ft | 447 kts | 261° |
| 2026-05-07 17:52 | 39.51719 | 95.68520 | 40263 ft | 448 kts | 260° |
| 2026-05-07 17:53 | 39.50816 | 95.60539 | 40262 ft | 448 kts | 260° |
| 2026-05-07 17:53 | 39.49907 | 95.52548 | 40266 ft | 449 kts | 260° |
| 2026-05-07 17:54 | 39.48988 | 95.44556 | 40265 ft | 449 kts | 260° |
| 2026-05-07 17:54 | 39.48064 | 95.36563 | 40258 ft | 449 kts | 260° |
| 2026-05-07 17:55 | 39.47140 | 95.28618 | 40245 ft | 450 kts | 260° |
| 2026-05-07 17:55 | 39.46195 | 95.20533 | 40250 ft | 452 kts | 260° |
| 2026-05-07 17:56 | 39.45257 | 95.12550 | 40246 ft | 451 kts | 260° |
| 2026-05-07 17:56 | 39.44309 | 95.04535 | 40248 ft | 450 kts | 260° |
| 2026-05-07 17:57 | 39.43514 | 94.97828 | 40227 ft | 450 kts | 260° |
| 2026-05-07 17:57 | 39.42398 | 94.88507 | 40230 ft | 453 kts | 259° |
| 2026-05-07 17:58 | 39.41426 | 94.80442 | 40205 ft | 455 kts | 259° |
| 2026-05-07 17:58 | 39.40442 | 94.72369 | 40190 ft | 454 kts | 259° |
| 2026-05-07 17:59 | 39.39464 | 94.64320 | 40210 ft | 453 kts | 259° |
| 2026-05-07 17:59 | 39.38481 | 94.56268 | 40207 ft | 454 kts | 259° |
| 2026-05-07 18:00 | 39.37484 | 94.48186 | 40211 ft | 458 kts | 259° |
| 2026-05-07 18:00 | 39.36470 | 94.40037 | 40198 ft | 460 kts | 259° |
| 2026-05-07 18:01 | 39.35450 | 94.31866 | 40196 ft | 460 kts | 259° |
| 2026-05-07 18:01 | 39.34425 | 94.23711 | 40214 ft | 460 kts | 259° |
| 2026-05-07 18:02 | 39.32872 | 94.11445 | 40214 ft | 464 kts | 259° |
| 2026-05-07 18:03 | 39.31820 | 94.03193 | 40226 ft | 467 kts | 259° |
| 2026-05-07 18:03 | 39.30762 | 93.94909 | 40243 ft | 468 kts | 259° |
| 2026-05-07 18:04 | 39.29697 | 93.86632 | 40255 ft | 466 kts | 259° |
| 2026-05-07 18:04 | 39.28633 | 93.78422 | 40238 ft | 468 kts | 259° |
| 2026-05-07 18:05 | 39.27551 | 93.70143 | 40252 ft | 468 kts | 259° |
| 2026-05-07 18:05 | 39.26463 | 93.61853 | 40250 ft | 469 kts | 259° |
| 2026-05-07 18:06 | 39.25370 | 93.53560 | 40250 ft | 469 kts | 259° |
| 2026-05-07 18:06 | 39.24270 | 93.45264 | 40261 ft | 469 kts | 259° |
| 2026-05-07 18:07 | 39.23166 | 93.36986 | 40257 ft | 468 kts | 259° |
| 2026-05-07 18:07 | 39.22056 | 93.28694 | 40246 ft | 469 kts | 259° |
| 2026-05-07 18:08 | 39.20939 | 93.20411 | 40242 ft | 469 kts | 259° |
| 2026-05-07 18:08 | 39.19815 | 93.12139 | 40236 ft | 468 kts | 259° |
| 2026-05-07 18:09 | 39.18690 | 93.03865 | 40238 ft | 469 kts | 259° |
| 2026-05-07 18:09 | 39.17550 | 92.95563 | 40232 ft | 471 kts | 259° |
| 2026-05-07 18:10 | 39.16400 | 92.87239 | 40228 ft | 472 kts | 259° |
| 2026-05-07 18:10 | 39.15243 | 92.78901 | 40227 ft | 473 kts | 259° |
| 2026-05-07 18:11 | 39.14082 | 92.70569 | 40220 ft | 472 kts | 259° |
| 2026-05-07 18:11 | 39.12922 | 92.62295 | 40225 ft | 474 kts | 259° |
| 2026-05-07 18:12 | 39.11742 | 92.53929 | 40220 ft | 475 kts | 259° |
| 2026-05-07 18:12 | 39.10556 | 92.45552 | 40218 ft | 476 kts | 259° |
| 2026-05-07 18:13 | 39.09363 | 92.37176 | 40224 ft | 475 kts | 259° |
| 2026-05-07 18:13 | 39.08166 | 92.28812 | 40231 ft | 475 kts | 259° |
| 2026-05-07 18:14 | 39.06937 | 92.20449 | 40233 ft | 476 kts | 259° |
| 2026-05-07 18:14 | 39.05682 | 92.12077 | 40241 ft | 477 kts | 259° |
| 2026-05-07 18:15 | 39.04425 | 92.03704 | 40243 ft | 477 kts | 259° |
| 2026-05-07 18:15 | 39.03166 | 91.95338 | 40256 ft | 477 kts | 259° |
| 2026-05-07 18:16 | 39.01901 | 91.86966 | 40256 ft | 477 kts | 259° |
| 2026-05-07 18:16 | 39.00629 | 91.78588 | 40275 ft | 478 kts | 259° |
| 2026-05-07 18:17 | 38.99349 | 91.70204 | 40275 ft | 478 kts | 259° |
| 2026-05-07 18:17 | 38.98063 | 91.61817 | 40278 ft | 478 kts | 259° |
| 2026-05-07 18:18 | 38.96720 | 91.53456 | 40276 ft | 478 kts | 256° |
| 2026-05-07 18:18 | 38.95325 | 91.45104 | 40279 ft | 479 kts | 257° |